Terminal Aerodrome Forecast
Issued by NWS Omaha/Valley, NE

Home | Current Version | Previous Version | Text Only | Print | Product List | Glossary On
Versions: 1 2 3 4 5 6 7 8 9 10 11 12 13 14 15 16 17 18 19 20 21 22 23
000
FTUS43 KOAX 172324
TAFOMA
TAF
KOMA 172324Z 1800/1824 29010KT P6SM SKC
     FM180200 VRB05KT P6SM SKC
     FM180900 15005KT P6SM TSRA BKN040CB
     FM181200 21008KT P6SM VCTS SCT200CB
     FM181400 24008KT P6SM FEW200
     FM182000 29008KT P6SM FEW250=

USA.gov is the U.S. government's official web portal to all federal, state and local government web resources and services.